Skip to main content

Arcos De Valdevez - Heliporto (CIM)

ID 6211216 · 41.8310, -8.4438 map

Latest reading · 2026-05-09 19:00 (Europe/Lisbon)

Temperature
12.2 °C
Humidity
90 %
Pressure
1,006.2 hPa
Precipitation
6.7 mm
Radiation
Wind speed
5.8 km/h
Wind direction
S · South

24-hour history

Time (Europe/Lisbon) Temp Humidity Pressure Rain Wind Dir
2026-05-09 19:00 12.2 °C 90 % 1,006.2 6.7 mm 5.8 km/h S
2026-05-09 18:00 12.5 °C 86 % 1,005.3 0.4 mm
2026-05-09 17:00 11.9 °C 91 % 1,005.2 0.0 mm
2026-05-09 16:00 13.7 °C 79 % 1,004.3 4.6 mm
2026-05-09 15:00 15.7 °C 69 % 1,003.7 0.0 mm 11.5 km/h S
2026-05-09 14:00 13.5 °C 83 % 1,004.7 0.0 mm 4.7 km/h SW
2026-05-09 13:00 14.4 °C 74 % 1,004.7 0.0 mm 12.2 km/h SW
2026-05-09 12:00 14.8 °C 67 % 1,004.9 0.0 mm 13.0 km/h SE
2026-05-09 11:00 15.6 °C 64 % 1,004.8 0.0 mm 14.0 km/h SE
2026-05-09 10:00 14.7 °C 67 % 1,004.9 0.0 mm 11.5 km/h E
2026-05-09 09:00 13.8 °C 70 % 1,005.0 0.0 mm 6.1 km/h E
2026-05-09 08:00 13.0 °C 72 % 1,005.1 0.0 mm 7.2 km/h SE
2026-05-09 07:00 12.3 °C 75 % 1,005.2 0.0 mm 8.3 km/h SE
2026-05-09 06:00 12.5 °C 75 % 1,005.1 0.0 mm 6.1 km/h SE
2026-05-09 05:00 13.1 °C 72 % 1,005.1 0.0 mm 6.1 km/h S
2026-05-09 04:00 11.9 °C 82 % 1,005.4 0.1 mm 4.3 km/h SW
2026-05-09 03:00 11.8 °C 81 % 1,005.9 1.1 mm 7.9 km/h E
2026-05-09 02:00 13.5 °C 64 % 1,006.1 0.0 mm 11.2 km/h SW
2026-05-09 01:00 12.6 °C 69 % 1,006.2 0.0 mm 4.0 km/h N
2026-05-09 00:00 12.4 °C 70 % 1,007.1 0.0 mm 2.2 km/h E
2026-05-08 23:00 12.4 °C 70 % 1,007.6 0.0 mm 5.8 km/h NE
2026-05-08 22:00 13.0 °C 70 % 1,008.2 0.0 mm 4.7 km/h NE
2026-05-08 21:00 13.7 °C 67 % 1,008.1 0.0 mm 7.9 km/h N
2026-05-08 20:00 15.5 °C 58 % 1,007.9 0.0 mm 4.3 km/h E